CheckWX is a tool to help pilots better visualize weather data.  It is not intended as a substitute for an official pre-flight weather briefing.

11:23:40 UTC

KMXF METAR
Maxwell AFB Airport
Montgomery, Alabama, USA
Current

28 mins ago

KMXF 121056Z AUTO 06007KT 10SM CLR 04/M02 A3042 RMK AO2 SLP305 T00441025
Observed
Dec-12 @ 10:56 UTC
Wind
  • 060° at 7 KTS
Visibility
10 SM
Flight Rules
VFR
Cloud Levels
  • Clear skies
Temperature
C / 39°F
Dewpoint
-3°C / 27°F
Humidity
61%
Altimeter
30.42" Hg
Pressure
1030.12 hPa
Previous

1 hour ago

KMXF 120956Z AUTO 05005KT 10SM CLR 03/M03 A3042 RMK AO2 SLP305 T00341030
Observed
Dec-12 @ 09:56 UTC
Wind
  • 050° at 5 KTS
Visibility
10 SM
Flight Rules
VFR
Cloud Levels
  • Clear skies
Temperature
C / 37°F
Dewpoint
-3°C / 27°F
Humidity
65%
Altimeter
30.42" Hg
Pressure
1030.12 hPa
Previous

2 hours ago

KMXF 120856Z AUTO 03005KT 10SM CLR 03/M02 A3043 RMK AO2 SLP308 T00281023 50000
Observed
Dec-12 @ 08:56 UTC
Wind
  • 030° at 5 KTS
Visibility
10 SM
Flight Rules
VFR
Cloud Levels
  • Clear skies
Temperature
C / 37°F
Dewpoint
-2°C / 28°F
Humidity
70%
Altimeter
30.43" Hg
Pressure
1030.52 hPa